EGFF Airport Information

Runway Information
Runway 12 Length 7848 ft width 151 ft
Elevation 205 ft Threshold 797 ft Heading 117
Runway 30 Length 7848 ft Width 151 ft
Elevation 213 ft Threshold 551 ft Heading 297
Airport Frequencies
Type APP Name Cardiff Ap Frequency 119.15 MHZ
Type APP Name Cardiff Ra Frequency 125.85 MHZ
Type ATIS Name ATIS Frequency 132.475 MHZ
Type Radar Name Frequency 133.6 MHZ
Type TWR Name Cardiff Tw Frequency 133.1 MHZ
Airport Navaids
Airport Weather Information & NOTAM
ADDS - METARS form results

(0658 UTC 23 October 2021)
Data provider http://aviationweather.gov/metar/data/
 
METAR text: EGFF 230650Z AUTO 23010KT 9999 OVC043/// //////CB 12/05 Q1024
Conditions at: EGFF (CARDIFF-WALES AR, GB) observed 0650 UTC 23 October 2021
Temperature: 12.0°C (54°F)
Dewpoint: 5.0°C (41°F) [RH = 62%]
Pressure (altimeter): 30.24 inches Hg (1024.0 mb)
Winds: from the SW (230 degrees) at 12 MPH (10 knots; 5.1 m/s)
Visibility: 6 or more miles (10+ km)
Ceiling: 4300 feet AGL
Clouds: overcast cloud deck at 4300 feet AGL
Weather: no significant weather observed at this time

METAR text: EGFF 230620Z AUTO 23014KT 9999 OVC042 12/05 Q1023
Conditions at: EGFF (CARDIFF-WALES AR, GB) observed 0620 UTC 23 October 2021
Temperature: 12.0°C (54°F)
Dewpoint: 5.0°C (41°F) [RH = 62%]
Pressure (altimeter): 30.21 inches Hg (1023.0 mb)
Winds: from the SW (230 degrees) at 16 MPH (14 knots; 7.2 m/s)
Visibility: 6 or more miles (10+ km)
Ceiling: 4200 feet AGL
Clouds: overcast cloud deck at 4200 feet AGL
Weather: no significant weather observed at this time

Forecast for: EGFF (CARDIFF-WALES AR, GB)
Text: TAF EGFF 230453Z 2306/2406 20009KT 9999 SCT040
Forecast period: 0600 UTC 23 October 2021 to 0600 UTC 24 October 2021
Forecast type: FROM: standard forecast or significant change
Winds: from the SSW (200 degrees) at 10 MPH (9 knots; 4.6 m/s)
Visibility: 6 or more miles (10+ km)
Ceiling: at least 12,000 feet AGL
Clouds: scattered clouds at 4000 feet AGL
Weather: no significant weather forecast for this period
Text: PROB30 2317/2406 19015G25KT
Forecast period: 1700 UTC 23 October 2021 to 0600 UTC 24 October 2021
Forecast type: PROBABLE: 30 percent likelihood of the following during this time
Winds: from the S (190 degrees) at 17 MPH (15 knots; 7.7 m/s)
gusting to 29 MPH (25 knots; 12.9 m/s)
Visibility: missing
Ceiling: unknown
Clouds: missing
Weather: no significant weather forecast for this period